Terminal Aerodrome Forecast
Issued by NWS

Home | Current Version | Previous Version | Text Only | Print | Product List | Glossary On
Versions: 1 2 3 4 5 6 7 8 9 10 11 12 13
000
FTUS45 KABQ 192300
TAFFMN
TAF
KFMN 192337Z 2000/2024 28012G20KT P6SM VCSH BKN110
     FM200300 VRB06KT P6SM VCSH BKN060
     FM200900 08007KT P6SM BKN045
     FM201700 26008KT P6SM FEW060=

USA.gov is the U.S. government's official web portal to all federal, state and local government web resources and services.